Time;durP1;ratioP1;P1;durP2;ratioP2;P2;SDS_P1;SDS_P2;PMS_P1;PMS_P2;Temp;Humidity;BMP_temperature;BMP_pressure;BME280_temperature;BME280_humidity;BME280_pressure;Samples;Min_cycle;Max_cycle;Signal;HPM_P1;HPM_P2
2021/03/07 00:01:48;;;;;;;7.10;6.40;;;6.40;1.00;;;;;;5092487;28;20182;-65
2021/03/07 00:04:14;;;;;;;7.80;6.17;;;6.30;1.00;;;;;;5071334;28;20182;-63
2021/03/07 00:06:39;;;;;;;8.67;6.97;;;6.30;1.00;;;;;;5070832;28;20179;-65
2021/03/07 00:09:05;;;;;;;6.80;6.10;;;6.30;1.00;;;;;;5074483;28;20651;-65
2021/03/07 00:11:31;;;;;;;8.90;6.20;;;6.30;1.00;;;;;;5083293;28;20649;-65
2021/03/07 00:13:56;;;;;;;6.57;5.67;;;6.40;1.00;;;;;;5078204;28;20943;-64
2021/03/07 00:16:22;;;;;;;7.27;5.40;;;6.40;1.00;;;;;;5075257;28;20187;-65
2021/03/07 00:18:48;;;;;;;6.73;5.70;;;6.30;1.00;;;;;;5071747;28;20240;-65
2021/03/07 00:21:15;;;;;;;7.10;5.80;;;6.40;1.00;;;;;;5068493;28;20549;-65
2021/03/07 00:23:41;;;;;;;5.93;5.40;;;6.30;1.00;;;;;;5071803;28;20191;-66
2021/03/07 00:26:07;;;;;;;6.80;6.10;;;;;;;;;;5088027;28;20794;-66
2021/03/07 00:28:32;;;;;;;6.80;5.57;;;6.20;1.00;;;;;;5070855;28;20234;-66
2021/03/07 00:30:58;;;;;;;6.40;4.87;;;6.20;1.00;;;;;;5071305;28;20430;-66
2021/03/07 00:33:24;;;;;;;10.73;5.60;;;6.20;1.00;;;;;;5070649;28;20207;-65
2021/03/07 00:35:49;;;;;;;7.57;5.37;;;6.10;1.00;;;;;;5071368;28;20446;-66
2021/03/07 00:38:15;;;;;;;7.27;5.77;;;6.00;1.00;;;;;;5070251;28;20270;-67
2021/03/07 00:40:40;;;;;;;5.43;4.97;;;5.90;1.00;;;;;;5084535;28;20191;-64
2021/03/07 00:43:06;;;;;;;7.87;5.23;;;5.70;1.00;;;;;;5090137;28;20556;-64
2021/03/07 00:45:33;;;;;;;8.10;5.37;;;5.70;1.00;;;;;;5085377;28;20207;-63
2021/03/07 00:47:58;;;;;;;9.27;5.23;;;5.60;1.00;;;;;;5070664;28;20211;-64
2021/03/07 00:50:26;;;;;;;5.43;4.80;;;5.60;1.00;;;;;;5070102;28;20927;-64
2021/03/07 00:52:54;;;;;;;5.73;5.00;;;5.50;1.00;;;;;;5071511;28;20171;-64
2021/03/07 00:55:19;;;;;;;5.13;4.63;;;5.60;1.00;;;;;;5069738;28;20481;-64
2021/03/07 00:57:45;;;;;;;7.67;5.33;;;5.70;1.00;;;;;;5069272;28;20500;-64
2021/03/07 01:00:13;;;;;;;5.00;4.50;;;5.80;1.00;;;;;;5070191;28;20210;-64
2021/03/07 01:02:39;;;;;;;8.53;5.10;;;5.80;1.00;;;;;;5068698;28;20194;-64
2021/03/07 01:05:05;;;;;;;7.83;5.07;;;5.80;1.00;;;;;;5068084;28;20449;-63
2021/03/07 01:07:31;;;;;;;5.47;4.60;;;5.60;1.00;;;;;;5068724;28;20309;-66
2021/03/07 01:09:57;;;;;;;8.17;5.40;;;5.70;1.00;;;;;;5054967;28;20454;-65
2021/03/07 01:12:23;;;;;;;4.83;4.43;;;5.70;1.00;;;;;;5062897;28;20995;-65
2021/03/07 01:14:48;;;;;;;4.73;4.23;;;5.70;1.00;;;;;;5073147;28;20625;-64
2021/03/07 01:17:14;;;;;;;5.13;4.50;;;5.70;1.00;;;;;;5066941;28;20199;-66
2021/03/07 01:19:39;;;;;;;6.00;4.83;;;5.60;1.00;;;;;;5081325;28;20205;-66
2021/03/07 01:22:05;;;;;;;5.07;4.27;;;5.70;1.00;;;;;;5091171;28;20194;-64
2021/03/07 01:24:31;;;;;;;6.33;4.70;;;5.70;1.00;;;;;;5090903;28;20186;-65
2021/03/07 01:26:56;;;;;;;5.70;4.27;;;5.70;1.00;;;;;;5084160;28;20227;-64
2021/03/07 01:29:22;;;;;;;6.60;5.70;;;5.70;1.00;;;;;;5071025;28;20248;-63
2021/03/07 01:31:47;;;;;;;6.30;4.93;;;5.90;1.00;;;;;;5076072;28;20293;-64
2021/03/07 01:34:13;;;;;;;5.30;4.37;;;6.00;1.00;;;;;;5069269;28;20183;-64
2021/03/07 01:36:38;;;;;;;5.53;4.27;;;5.80;1.00;;;;;;5069363;28;20288;-64
2021/03/07 01:39:05;;;;;;;6.97;5.70;;;5.90;1.00;;;;;;5069873;28;20214;-64
2021/03/07 01:41:30;;;;;;;5.43;4.87;;;5.80;1.00;;;;;;5070685;28;20241;-64
2021/03/07 01:43:56;;;;;;;5.60;4.70;;;6.00;1.00;;;;;;5088466;28;20441;-65
2021/03/07 01:46:22;;;;;;;5.87;4.63;;;5.90;1.00;;;;;;5076289;28;20773;-64
2021/03/07 01:48:48;;;;;;;8.53;4.90;;;5.80;1.00;;;;;;5067807;28;20280;-65
2021/03/07 01:51:14;;;;;;;5.33;4.70;;;5.80;1.00;;;;;;5068232;28;20179;-65
2021/03/07 01:53:41;;;;;;;6.63;5.40;;;5.80;1.00;;;;;;5070430;28;20451;-64
2021/03/07 01:56:09;;;;;;;6.10;5.40;;;5.80;1.00;;;;;;5084231;28;20475;-64
2021/03/07 01:58:36;;;;;;;7.10;5.00;;;5.60;1.00;;;;;;5079051;28;20433;-64
2021/03/07 02:01:02;;;;;;;6.47;5.27;;;5.60;1.00;;;;;;5069153;28;20529;-65
2021/03/07 02:03:28;;;;;;;6.70;5.33;;;5.60;1.00;;;;;;5083206;28;20483;-64
2021/03/07 02:05:54;;;;;;;7.43;5.20;;;8.20;1.00;;;;;;5082114;28;20433;-65
2021/03/07 02:08:20;;;;;;;6.90;5.07;;;5.60;1.00;;;;;;5072154;28;20212;-65
2021/03/07 02:11:01;;;;;;;6.90;5.03;;;5.60;1.00;;;;;;5076048;28;20449;-64
2021/03/07 02:13:33;;;;;;;8.73;5.90;;;5.60;1.00;;;;;;5090730;28;21227;-64
2021/03/07 02:16:08;;;;;;;7.27;5.33;;;5.70;1.00;;;;;;5078142;28;20434;-64
2021/03/07 02:18:36;;;;;;;9.33;6.60;;;5.70;1.00;;;;;;5070447;28;20498;-64
2021/03/07 02:21:08;;;;;;;8.87;6.20;;;5.80;1.00;;;;;;5077399;28;20437;-65
2021/03/07 02:23:44;;;;;;;8.50;6.70;;;5.70;1.00;;;;;;5063147;28;20446;-65
2021/03/07 02:26:10;;;;;;;7.10;5.80;;;5.70;1.00;;;;;;5069874;28;20501;-65
2021/03/07 02:28:36;;;;;;;10.40;6.83;;;5.60;1.00;;;;;;5069420;28;20473;-63
2021/03/07 02:31:01;;;;;;;9.40;5.73;;;5.50;1.00;;;;;;5069826;28;20680;-65
2021/03/07 02:33:38;;;;;;;11.40;7.37;;;5.50;1.00;;;;;;5071767;28;20171;-64
2021/03/07 02:36:22;;;;;;;9.57;6.13;;;5.50;1.00;;;;;;5071423;28;20708;-65
2021/03/07 02:38:49;;;;;;;10.77;6.83;;;5.50;1.00;;;;;;5070525;28;20498;-65
2021/03/07 02:41:17;;;;;;;10.67;7.80;;;5.50;1.00;;;;;;5072333;28;21104;-65
2021/03/07 02:43:46;;;;;;;9.53;6.80;;;5.60;1.00;;;;;;5073256;28;20449;-64
2021/03/07 02:46:15;;;;;;;12.90;7.83;;;5.70;1.00;;;;;;5072981;28;20449;-65
2021/03/07 02:48:42;;;;;;;7.93;6.73;;;5.80;1.00;;;;;;5072665;28;20502;-63
2021/03/07 02:51:10;;;;;;;12.07;8.23;;;5.70;1.00;;;;;;5071453;28;21016;-65
2021/03/07 02:53:37;;;;;;;10.93;8.00;;;5.80;1.00;;;;;;5072473;28;20453;-63
2021/03/07 02:56:12;;;;;;;11.60;7.67;;;5.70;1.00;;;;;;5071043;28;20491;-64
2021/03/07 02:58:40;;;;;;;11.90;8.80;;;5.60;1.00;;;;;;5072281;28;20457;-64
2021/03/07 03:01:09;;;;;;;9.87;7.20;;;5.50;1.00;;;;;;5071311;28;20536;-65
2021/03/07 03:03:38;;;;;;;11.77;8.40;;;5.40;1.00;;;;;;5070585;28;20950;-63
2021/03/07 03:06:05;;;;;;;13.07;8.40;;;5.50;1.00;;;;;;5070386;28;20438;-64
2021/03/07 03:08:32;;;;;;;13.73;9.00;;;5.50;1.00;;;;;;5070353;28;20557;-63
2021/03/07 03:11:00;;;;;;;12.00;9.17;;;5.60;1.00;;;;;;5072575;28;20486;-64
2021/03/07 03:13:26;;;;;;;14.90;9.47;;;5.60;1.00;;;;;;5070319;28;22137;-64
2021/03/07 03:15:53;;;;;;;14.00;9.07;;;5.60;1.00;;;;;;5072030;28;20433;-64
2021/03/07 03:18:20;;;;;;;11.40;8.80;;;5.60;1.00;;;;;;5070363;28;20450;-65
2021/03/07 03:20:48;;;;;;;14.13;8.80;;;5.60;1.00;;;;;;5070511;28;20977;-63
2021/03/07 03:23:14;;;;;;;13.30;9.80;;;5.70;1.00;;;;;;5071031;28;21050;-64
2021/03/07 03:25:39;;;;;;;12.17;9.33;;;5.70;1.00;;;;;;5071832;28;20486;-63
2021/03/07 03:28:07;;;;;;;12.23;8.97;;;5.70;1.00;;;;;;5071962;28;20512;-64
2021/03/07 03:30:34;;;;;;;13.47;9.80;;;5.80;1.00;;;;;;5070653;28;20191;-63
2021/03/07 03:32:59;;;;;;;16.57;9.90;;;5.60;1.00;;;;;;5071787;28;20468;-63
2021/03/07 03:35:26;;;;;;;14.17;9.90;;;;;;;;;;5071910;28;20441;-63
2021/03/07 03:37:51;;;;;;;14.60;10.73;;;5.70;1.00;;;;;;5071325;28;20519;-63
2021/03/07 03:40:24;;;;;;;14.57;10.60;;;5.70;1.00;;;;;;5071958;28;20441;-64
2021/03/07 03:43:10;;;;;;;15.17;10.67;;;8.70;1.00;;;;;;5071238;28;20175;-64
2021/03/07 03:45:39;;;;;;;15.40;10.40;;;5.70;1.00;;;;;;5070126;28;20453;-64
2021/03/07 03:48:15;;;;;;;16.87;10.83;;;5.50;1.00;;;;;;5069294;28;20477;-63
2021/03/07 03:50:43;;;;;;;15.00;10.63;;;5.50;1.00;;;;;;5070667;28;20528;-63
2021/03/07 03:53:17;;;;;;;17.17;12.57;;;5.50;1.00;;;;;;5071865;28;20437;-64
2021/03/07 03:55:47;;;;;;;16.93;10.40;;;5.50;1.00;;;;;;5071313;28;20491;-63
2021/03/07 03:58:14;;;;;;;19.93;11.20;;;5.60;1.00;;;;;;5070692;28;20438;-63
2021/03/07 04:00:42;;;;;;;16.53;11.03;;;5.40;1.00;;;;;;5077766;28;20449;-63
2021/03/07 04:03:13;;;;;;;14.80;10.40;;;5.40;1.00;;;;;;5076094;28;20576;-64
2021/03/07 04:05:45;;;;;;;16.23;11.10;;;5.50;1.00;;;;;;5077817;28;20437;-63
2021/03/07 04:08:11;;;;;;;16.80;11.73;;;;;;;;;;5071036;28;20470;-64
2021/03/07 04:10:37;;;;;;;16.90;11.27;;;5.50;1.00;;;;;;5071442;28;20822;-63
2021/03/07 04:13:03;;;;;;;15.67;11.50;;;5.40;1.00;;;;;;5070830;28;20524;-64
2021/03/07 04:15:30;;;;;;;17.87;11.97;;;5.50;1.00;;;;;;5078269;28;20476;-64
2021/03/07 04:17:57;;;;;;;19.07;12.23;;;5.50;1.00;;;;;;5060807;28;20441;-63
2021/03/07 04:20:25;;;;;;;12.90;9.63;;;5.50;1.00;;;;;;5069891;28;20480;-63
2021/03/07 04:22:51;;;;;;;18.10;11.00;;;5.40;1.00;;;;;;5070698;28;20460;-63
2021/03/07 04:25:17;;;;;;;16.47;11.60;;;5.40;1.00;;;;;;5070746;28;20775;-64
2021/03/07 04:27:43;;;;;;;20.60;13.47;;;5.50;1.00;;;;;;5070753;28;20461;-64
2021/03/07 04:30:11;;;;;;;15.03;10.83;;;5.50;1.00;;;;;;5067530;28;20190;-63
2021/03/07 04:32:37;;;;;;;15.03;10.60;;;5.60;1.00;;;;;;5073067;28;20433;-66
2021/03/07 04:35:05;;;;;;;17.60;12.10;;;5.50;1.00;;;;;;5068940;28;20445;-63
2021/03/07 04:37:31;;;;;;;18.27;11.37;;;5.50;1.00;;;;;;5070611;28;20510;-63
2021/03/07 04:39:56;;;;;;;17.60;11.77;;;5.60;1.00;;;;;;5068851;28;20457;-64
2021/03/07 04:42:23;;;;;;;16.17;11.37;;;5.60;1.00;;;;;;5069747;28;20491;-64
2021/03/07 04:44:48;;;;;;;16.47;11.90;;;5.50;1.00;;;;;;5066455;28;20250;-64
2021/03/07 04:47:14;;;;;;;16.13;10.80;;;5.40;1.00;;;;;;5070337;28;20958;-65
2021/03/07 04:49:40;;;;;;;15.10;10.77;;;5.40;1.00;;;;;;5080089;28;20464;-64
2021/03/07 04:52:06;;;;;;;16.90;11.53;;;5.40;1.00;;;;;;5072748;28;20993;-64
2021/03/07 04:54:32;;;;;;;18.57;12.57;;;;;;;;;;5070064;28;20218;-64
2021/03/07 04:57:02;;;;;;;15.60;11.50;;;5.30;1.00;;;;;;5069986;28;20484;-63
2021/03/07 04:59:28;;;;;;;17.73;11.30;;;5.30;1.00;;;;;;5070325;28;20524;-64
2021/03/07 05:01:54;;;;;;;16.30;11.10;;;5.30;1.00;;;;;;5068957;28;20545;-64
2021/03/07 05:04:20;;;;;;;20.33;12.17;;;5.30;1.00;;;;;;5070011;28;20441;-65
2021/03/07 05:06:45;;;;;;;15.40;10.97;;;5.30;1.00;;;;;;5075614;28;20448;-64
2021/03/07 05:09:11;;;;;;;16.40;10.90;;;5.30;1.00;;;;;;5069920;28;20522;-64
2021/03/07 05:11:37;;;;;;;13.23;9.63;;;5.40;1.00;;;;;;5069877;28;20190;-64
2021/03/07 05:14:03;;;;;;;13.03;9.90;;;5.40;1.00;;;;;;5067638;28;20191;-64
2021/03/07 05:16:29;;;;;;;13.50;10.07;;;5.30;1.00;;;;;;5069823;28;20464;-63
2021/03/07 05:18:55;;;;;;;15.60;10.67;;;5.30;1.00;;;;;;5074182;28;20440;-63
2021/03/07 05:21:22;;;;;;;13.43;9.53;;;5.30;1.00;;;;;;5072791;28;20214;-64
2021/03/07 05:23:47;;;;;;;12.50;10.13;;;5.40;1.00;;;;;;5068816;28;20437;-65
2021/03/07 05:26:13;;;;;;;14.37;10.00;;;5.40;1.00;;;;;;5070610;28;20441;-62
2021/03/07 05:28:39;;;;;;;12.80;8.47;;;5.40;1.00;;;;;;5068921;28;20219;-63
2021/03/07 05:31:04;;;;;;;13.43;9.00;;;5.50;1.00;;;;;;5067878;28;20195;-64
2021/03/07 05:33:31;;;;;;;10.77;8.43;;;5.50;1.00;;;;;;5069826;28;20179;-64
2021/03/07 05:35:56;;;;;;;10.50;7.53;;;;;;;;;;5071835;28;20188;-64
2021/03/07 05:38:23;;;;;;;11.37;7.80;;;5.10;1.00;;;;;;5069749;28;20441;-64
2021/03/07 05:40:49;;;;;;;11.17;8.43;;;5.00;1.00;;;;;;5069686;28;20434;-64
2021/03/07 05:43:14;;;;;;;12.23;9.07;;;5.00;1.00;;;;;;5076324;28;20472;-65
2021/03/07 05:45:40;;;;;;;11.47;8.30;;;5.00;1.00;;;;;;5069250;28;20973;-65
2021/03/07 05:48:07;;;;;;;12.87;9.40;;;4.90;1.00;;;;;;5068892;28;20211;-63
2021/03/07 05:50:33;;;;;;;11.50;7.80;;;5.10;1.00;;;;;;5069796;28;20194;-65
2021/03/07 05:52:59;;;;;;;11.10;7.23;;;5.20;1.00;;;;;;5068718;28;21046;-64
2021/03/07 05:55:25;;;;;;;11.23;7.73;;;5.30;1.00;;;;;;5068942;28;20524;-65
2021/03/07 05:57:51;;;;;;;10.53;7.07;;;5.20;1.00;;;;;;5069720;28;20460;-63
2021/03/07 06:00:19;;;;;;;10.10;7.10;;;5.20;1.00;;;;;;5073789;28;20448;-66
2021/03/07 06:02:45;;;;;;;10.33;7.60;;;5.30;1.00;;;;;;5071878;28;20532;-63
2021/03/07 06:05:12;;;;;;;8.60;7.13;;;5.20;1.00;;;;;;5073920;28;21028;-64
2021/03/07 06:07:39;;;;;;;11.43;7.57;;;5.20;1.00;;;;;;5075691;28;20457;-63
2021/03/07 06:10:18;;;;;;;9.67;6.60;;;5.20;1.00;;;;;;5072064;28;20988;-64
2021/03/07 06:12:55;;;;;;;14.80;7.23;;;5.10;1.00;;;;;;5066954;28;20517;-63
2021/03/07 06:15:21;;;;;;;9.60;7.17;;;5.10;1.00;;;;;;5073980;28;20448;-63
2021/03/07 06:17:47;;;;;;;13.53;7.13;;;5.10;1.00;;;;;;5074570;28;20524;-66
2021/03/07 06:20:15;;;;;;;8.93;6.40;;;5.00;1.00;;;;;;5073578;28;20448;-63
2021/03/07 06:22:54;;;;;;;8.20;7.00;;;5.10;1.00;;;;;;5072481;28;20452;-64
2021/03/07 06:25:21;;;;;;;8.33;6.33;;;5.10;1.00;;;;;;5070629;28;20477;-63
2021/03/07 06:27:47;;;;;;;11.70;7.57;;;5.00;1.00;;;;;;5074308;28;20484;-64
2021/03/07 06:30:17;;;;;;;10.97;7.17;;;5.00;1.00;;;;;;5072030;28;20441;-63
2021/03/07 06:32:52;;;;;;;9.50;7.53;;;5.10;1.00;;;;;;5073530;28;20465;-66
2021/03/07 06:35:27;;;;;;;10.47;6.13;;;5.10;1.00;;;;;;5072716;28;20797;-63
2021/03/07 06:37:59;;;;;;;25.60;18.30;;;5.10;1.00;;;;;;5072248;28;20460;-64
2021/03/07 06:40:33;;;;;;;10.07;7.80;;;5.20;1.00;;;;;;5072289;28;20503;-65
2021/03/07 06:43:01;;;;;;;9.33;7.20;;;5.30;1.00;;;;;;5072874;28;20437;-63
2021/03/07 06:45:41;;;;;;;25.63;19.83;;;5.50;1.00;;;;;;5070826;28;20441;-65
2021/03/07 06:48:08;;;;;;;8.17;6.93;;;5.50;1.00;;;;;;5072477;28;20469;-65
2021/03/07 06:50:35;;;;;;;8.83;6.80;;;5.50;1.00;;;;;;5071184;28;20430;-64
2021/03/07 06:53:01;;;;;;;8.87;7.97;;;5.50;1.00;;;;;;5078097;28;20436;-64
2021/03/07 06:55:46;;;;;;;11.33;6.33;;;5.70;1.00;;;;;;5071621;28;20437;-63
2021/03/07 06:58:16;;;;;;;7.33;5.87;;;5.60;1.00;;;;;;5070289;28;20472;-63
2021/03/07 07:00:42;;;;;;;7.03;6.20;;;5.50;1.00;;;;;;5072520;28;20454;-64
2021/03/07 07:03:15;;;;;;;10.03;7.03;;;5.60;1.00;;;;;;5070475;28;21281;-64
2021/03/07 07:05:48;;;;;;;9.30;7.10;;;5.60;1.00;;;;;;5079234;28;20524;-63
2021/03/07 07:08:15;;;;;;;9.37;8.40;;;5.70;1.00;;;;;;5071845;28;20463;-64
2021/03/07 07:11:06;;;;;;;8.20;7.03;;;5.70;1.00;;;;;;5072164;28;20572;-63
2021/03/07 07:13:45;;;;;;;8.47;6.40;;;5.90;1.00;;;;;;5071934;28;20430;-66
2021/03/07 07:16:14;;;;;;;10.67;6.70;;;5.90;1.00;;;;;;5071993;28;20782;-63
2021/03/07 07:18:43;;;;;;;6.67;5.97;;;6.00;1.00;;;;;;5070946;28;21224;-64
2021/03/07 07:21:18;;;;;;;6.50;4.93;;;6.20;1.00;;;;;;5071256;28;21217;-63
2021/03/07 07:23:47;;;;;;;6.53;5.20;;;6.20;1.00;;;;;;5069903;28;20517;-65
2021/03/07 07:26:13;;;;;;;5.60;4.57;;;6.20;1.00;;;;;;5071897;28;20466;-64
2021/03/07 07:28:39;;;;;;;7.70;5.13;;;6.30;1.00;;;;;;5071167;28;20507;-63
2021/03/07 07:31:07;;;;;;;6.27;5.13;;;6.30;1.00;;;;;;5070307;28;20473;-63
2021/03/07 07:33:42;;;;;;;8.70;5.40;;;6.40;1.00;;;;;;5073298;28;20229;-65
2021/03/07 07:36:12;;;;;;;7.63;5.43;;;6.70;1.00;;;;;;5072431;28;20822;-63
2021/03/07 07:38:39;;;;;;;6.53;5.80;;;6.70;1.00;;;;;;5070321;28;20453;-63
2021/03/07 07:41:25;;;;;;;12.33;7.33;;;6.70;1.00;;;;;;5070342;28;20480;-64
2021/03/07 07:43:51;;;;;;;5.10;4.63;;;6.90;1.00;;;;;;5071609;28;20477;-64
2021/03/07 07:46:17;;;;;;;8.27;6.50;;;6.90;1.00;;;;;;5071921;28;20485;-64
2021/03/07 07:48:43;;;;;;;7.33;5.40;;;6.90;1.00;;;;;;5071313;28;20214;-64
2021/03/07 07:51:28;;;;;;;6.03;5.43;;;6.70;1.00;;;;;;5070931;28;20182;-65
2021/03/07 07:53:53;;;;;;;6.07;4.87;;;6.80;1.00;;;;;;5069951;28;20533;-63
2021/03/07 07:56:40;;;;;;;7.03;4.93;;;6.90;1.00;;;;;;5071344;28;20441;-64
2021/03/07 07:59:07;;;;;;;6.00;4.30;;;6.90;1.00;;;;;;5071635;28;20202;-64
2021/03/07 08:01:51;;;;;;;6.30;4.87;;;7.00;1.00;;;;;;5068733;28;20441;-63
2021/03/07 08:04:29;;;;;;;6.67;4.83;;;7.00;1.00;;;;;;5075926;28;20443;-64
2021/03/07 08:07:00;;;;;;;8.13;5.33;;;6.90;1.00;;;;;;5070754;28;20449;-63
2021/03/07 08:09:44;;;;;;;7.73;6.33;;;6.90;1.00;;;;;;5067025;28;20970;-63
2021/03/07 08:12:47;;;;;;;7.27;5.93;;;6.80;1.00;;;;;;5067563;28;20445;-64
2021/03/07 08:15:28;;;;;;;5.47;4.97;;;6.80;1.00;;;;;;5066766;28;20438;-64
2021/03/07 08:17:58;;;;;;;5.67;5.10;;;6.90;1.00;;;;;;5070982;28;20440;-63
2021/03/07 08:20:41;;;;;;;5.73;5.00;;;6.80;1.00;;;;;;5075192;28;20520;-63
2021/03/07 08:23:12;;;;;;;7.97;5.60;;;6.60;1.00;;;;;;5070804;28;20437;-64
2021/03/07 08:25:50;;;;;;;7.70;6.23;;;6.40;1.00;;;;;;5069277;28;20457;-62
2021/03/07 08:28:27;;;;;;;5.50;4.70;;;6.50;1.00;;;;;;5072463;28;20513;-63
2021/03/07 08:30:53;;;;;;;6.37;4.87;;;6.50;1.00;;;;;;5070860;28;20555;-64
2021/03/07 08:33:22;;;;;;;7.03;5.20;;;6.30;1.00;;;;;;5070812;28;20491;-64
2021/03/07 08:36:10;;;;;;;6.50;5.40;;;6.40;1.00;;;;;;5069131;28;20461;-63
2021/03/07 08:38:37;;;;;;;7.40;5.13;;;6.30;1.00;;;;;;5069417;28;20445;-65
2021/03/07 08:41:03;;;;;;;6.57;5.23;;;6.40;1.00;;;;;;5052085;28;20449;-65
2021/03/07 08:43:31;;;;;;;5.90;4.60;;;6.40;1.00;;;;;;5071393;28;20757;-61
2021/03/07 08:46:13;;;;;;;8.27;5.83;;;6.40;1.00;;;;;;5076682;28;20499;-61
2021/03/07 08:48:48;;;;;;;6.43;5.67;;;6.40;1.00;;;;;;5077101;28;20461;-62
2021/03/07 08:51:17;;;;;;;6.00;5.07;;;6.50;1.00;;;;;;5078182;28;20436;-65
2021/03/07 08:53:44;;;;;;;6.60;5.23;;;6.50;1.00;;;;;;5052099;28;20434;-67
2021/03/07 08:56:11;;;;;;;7.20;5.20;;;6.40;1.00;;;;;;5070050;28;20445;-65
2021/03/07 08:58:38;;;;;;;8.77;5.60;;;6.30;1.00;;;;;;5068557;28;20446;-65
2021/03/07 09:01:05;;;;;;;5.77;4.73;;;6.30;1.00;;;;;;5074258;28;20467;-65
2021/03/07 09:03:31;;;;;;;7.77;5.83;;;6.40;1.00;;;;;;5069209;28;20491;-66
2021/03/07 09:05:57;;;;;;;6.20;5.53;;;6.30;1.00;;;;;;5070077;28;20450;-64
2021/03/07 09:08:26;;;;;;;8.43;5.13;;;6.30;1.00;;;;;;5076345;28;20672;-64
2021/03/07 09:10:59;;;;;;;6.77;5.33;;;6.30;1.00;;;;;;5068783;28;20977;-63
2021/03/07 09:13:27;;;;;;;6.53;5.20;;;6.40;1.00;;;;;;5070118;28;20781;-64
2021/03/07 09:16:01;;;;;;;8.03;5.10;;;6.40;1.00;;;;;;5070027;28;20433;-64
2021/03/07 09:18:32;;;;;;;5.40;4.63;;;6.50;1.00;;;;;;5070718;28;20442;-66
2021/03/07 09:21:03;;;;;;;5.23;4.80;;;6.60;1.00;;;;;;5070720;28;20468;-65
2021/03/07 09:23:36;;;;;;;5.67;4.67;;;6.50;1.00;;;;;;5073683;28;20477;-65
2021/03/07 09:26:03;;;;;;;5.43;4.40;;;6.30;1.00;;;;;;5070186;28;20437;-65
2021/03/07 09:28:40;;;;;;;6.70;5.07;;;6.60;1.00;;;;;;5068672;28;20481;-64
2021/03/07 09:31:17;;;;;;;7.93;4.57;;;6.50;1.00;;;;;;5069126;28;20441;-65
2021/03/07 09:33:50;;;;;;;5.47;4.00;;;6.40;1.00;;;;;;5068424;28;20980;-63
2021/03/07 09:36:17;;;;;;;4.83;4.23;;;6.20;1.00;;;;;;5067016;28;20465;-64
2021/03/07 09:38:49;;;;;;;5.70;5.00;;;6.20;1.00;;;;;;5070794;28;20440;-65
2021/03/07 09:41:36;;;;;;;5.93;5.10;;;6.40;1.00;;;;;;5076809;28;20438;-65
2021/03/07 09:44:22;;;;;;;6.37;4.27;;;6.30;1.00;;;;;;5073614;28;20451;-64
2021/03/07 09:46:50;;;;;;;4.87;4.37;;;6.20;1.00;;;;;;5055012;28;20541;-63
2021/03/07 09:49:23;;;;;;;7.17;5.53;;;6.10;1.00;;;;;;5071838;28;20469;-62
2021/03/07 09:51:51;;;;;;;6.27;5.67;;;6.10;1.00;;;;;;5077221;28;21052;-63
2021/03/07 09:54:17;;;;;;;6.57;5.00;;;6.30;1.00;;;;;;5075572;28;20437;-65
2021/03/07 09:56:44;;;;;;;5.77;5.17;;;6.30;1.00;;;;;;5074833;28;21239;-66
2021/03/07 09:59:18;;;;;;;11.13;6.90;;;6.30;1.00;;;;;;5075831;28;20494;-63
2021/03/07 10:01:50;;;;;;;10.20;7.80;;;6.30;1.00;;;;;;5074050;28;20437;-63
2021/03/07 10:04:39;;;;;;;7.67;6.30;;;6.30;1.00;;;;;;5070483;28;20484;-65
2021/03/07 10:07:10;;;;;;;7.10;6.30;;;6.40;1.00;;;;;;5073147;28;20441;-64
2021/03/07 10:09:59;;;;;;;6.90;6.20;;;6.50;1.00;;;;;;5071377;28;20986;-65
2021/03/07 10:12:37;;;;;;;7.80;7.00;;;6.40;1.00;;;;;;5072780;28;20464;-63
2021/03/07 10:15:03;;;;;;;7.73;6.80;;;6.30;1.00;;;;;;5073532;28;20437;-63
2021/03/07 10:17:39;;;;;;;8.00;7.20;;;6.30;1.00;;;;;;5079313;28;20456;-65
2021/03/07 10:20:10;;;;;;;7.87;7.10;;;6.30;1.00;;;;;;5071296;28;20489;-64
2021/03/07 10:22:43;;;;;;;6.83;5.70;;;6.20;1.00;;;;;;5069902;28;20440;-62
2021/03/07 10:25:24;;;;;;;6.53;5.47;;;6.20;1.00;;;;;;5073786;28;20448;-63
2021/03/07 10:28:23;;;;;;;8.33;6.07;;;6.10;1.00;;;;;;5072794;28;20830;-63
2021/03/07 10:30:51;;;;;;;9.87;5.90;;;6.20;1.00;;;;;;5056820;28;20445;-65
2021/03/07 10:33:26;;;;;;;7.77;5.83;;;6.20;1.00;;;;;;5078545;28;20991;-64
2021/03/07 10:36:12;;;;;;;8.97;5.70;;;6.10;1.00;;;;;;5078067;28;20444;-63
2021/03/07 10:38:40;;;;;;;6.27;5.67;;;6.10;1.00;;;;;;5077275;28;20445;-64
2021/03/07 10:41:22;;;;;;;7.57;5.17;;;6.10;1.00;;;;;;5073290;28;20502;-64
2021/03/07 10:43:53;;;;;;;9.70;5.97;;;6.00;1.00;;;;;;5072184;28;20438;-66
2021/03/07 10:46:30;;;;;;;7.30;5.70;;;6.50;1.00;;;;;;5083267;28;20475;-66
2021/03/07 10:48:57;;;;;;;7.00;5.60;;;6.60;1.00;;;;;;5073759;28;20492;-66
2021/03/07 10:51:23;;;;;;;9.10;5.83;;;6.60;1.00;;;;;;5077262;28;20450;-65
2021/03/07 10:53:49;;;;;;;5.90;5.30;;;6.60;1.00;;;;;;5077423;28;20464;-66
2021/03/07 10:56:16;;;;;;;10.40;6.27;;;6.50;1.00;;;;;;5073312;28;20443;-64
2021/03/07 10:58:42;;;;;;;5.77;5.10;;;6.50;1.00;;;;;;5072642;28;20507;-66
2021/03/07 11:01:15;;;;;;;6.13;5.50;;;6.20;1.00;;;;;;5077746;28;20461;-65
2021/03/07 11:03:44;;;;;;;6.53;5.53;;;6.40;1.00;;;;;;5073005;28;20172;-64
2021/03/07 11:06:10;;;;;;;6.83;5.00;;;6.50;1.00;;;;;;5073802;28;20454;-66
2021/03/07 11:08:36;;;;;;;5.90;5.10;;;6.50;1.00;;;;;;5076547;28;20463;-64
2021/03/07 11:11:03;;;;;;;5.93;5.40;;;6.70;1.00;;;;;;5070419;28;20449;-64
2021/03/07 11:13:29;;;;;;;6.07;5.47;;;6.70;1.00;;;;;;5074257;28;20445;-65
2021/03/07 11:15:55;;;;;;;5.27;4.87;;;6.70;1.00;;;;;;5074068;28;20566;-56
2021/03/07 11:18:21;;;;;;;6.40;5.50;;;6.70;1.00;;;;;;5076641;28;20190;-62
2021/03/07 11:20:48;;;;;;;7.83;5.60;;;6.40;1.00;;;;;;5079134;28;20227;-61
2021/03/07 11:23:14;;;;;;;8.60;7.50;;;6.40;1.00;;;;;;5072810;28;20198;-63
2021/03/07 11:25:40;;;;;;;5.30;4.70;;;6.40;1.00;;;;;;5073650;28;20756;-63
2021/03/07 11:28:06;;;;;;;6.70;5.70;;;6.10;1.00;;;;;;5072235;28;20481;-64
2021/03/07 11:30:32;;;;;;;6.43;5.77;;;6.60;1.00;;;;;;5072544;28;20844;-63
2021/03/07 11:32:57;;;;;;;7.27;6.23;;;6.90;1.00;;;;;;5075363;28;20560;-63
2021/03/07 11:35:23;;;;;;;10.30;5.40;;;7.00;1.00;;;;;;5074385;28;20445;-64
2021/03/07 11:37:51;;;;;;;6.60;5.90;;;6.90;1.00;;;;;;5076891;28;20664;-65
2021/03/07 11:40:17;;;;;;;7.97;5.93;;;;;;;;;;5070189;28;20199;-64
2021/03/07 11:42:43;;;;;;;9.37;5.77;;;6.80;1.00;;;;;;5070995;28;20520;-64
2021/03/07 11:45:09;;;;;;;6.73;6.10;;;6.90;1.00;;;;;;5072225;28;20910;-64
2021/03/07 11:47:35;;;;;;;6.00;5.50;;;7.00;1.00;;;;;;5072136;28;20207;-62
2021/03/07 11:50:00;;;;;;;13.10;9.27;;;7.10;1.00;;;;;;5072285;28;20456;-63
2021/03/07 11:52:26;;;;;;;6.17;5.13;;;7.20;1.00;;;;;;5070384;28;20179;-63
2021/03/07 11:54:51;;;;;;;7.73;6.90;;;7.30;1.00;;;;;;5072558;28;20180;-62
2021/03/07 11:57:17;;;;;;;7.07;6.00;;;7.30;1.00;;;;;;5071613;28;20217;-63
2021/03/07 11:59:42;;;;;;;8.07;6.13;;;7.00;1.00;;;;;;5070523;28;20184;-63
2021/03/07 12:02:08;;;;;;;6.20;5.20;;;7.10;1.00;;;;;;5071450;28;20186;-63
2021/03/07 12:04:34;;;;;;;11.17;5.97;;;7.50;1.00;;;;;;5070744;28;20183;-63
2021/03/07 12:07:00;;;;;;;7.63;6.43;;;6.90;1.00;;;;;;5070145;28;20962;-62
2021/03/07 12:09:25;;;;;;;8.00;6.87;;;7.10;1.00;;;;;;5070754;28;20804;-64
2021/03/07 12:11:51;;;;;;;7.60;5.90;;;7.30;1.00;;;;;;5069822;28;20190;-63
2021/03/07 12:14:17;;;;;;;7.53;6.30;;;7.30;1.00;;;;;;5071785;28;20296;-64
2021/03/07 12:16:42;;;;;;;7.23;6.50;;;7.20;1.00;;;;;;5071291;28;20672;-64
2021/03/07 12:19:08;;;;;;;7.50;6.23;;;7.20;1.00;;;;;;5075089;28;20609;-63
2021/03/07 12:21:34;;;;;;;6.60;6.00;;;7.00;1.00;;;;;;5075594;28;20192;-63
2021/03/07 12:24:06;;;;;;;7.10;6.40;;;7.20;1.00;;;;;;5088000;28;20554;-63
2021/03/07 12:26:32;;;;;;;7.67;6.07;;;7.30;1.00;;;;;;5088149;28;20432;-64
2021/03/07 12:28:57;;;;;;;5.67;5.17;;;7.40;1.00;;;;;;5087902;28;20972;-62
2021/03/07 12:31:24;;;;;;;7.47;6.87;;;7.20;1.00;;;;;;5086529;28;20186;-63
2021/03/07 12:33:49;;;;;;;7.67;6.87;;;7.20;1.00;;;;;;5090771;28;20255;-64
2021/03/07 12:36:15;;;;;;;6.93;5.73;;;7.30;1.00;;;;;;5087720;28;20472;-63
2021/03/07 12:38:40;;;;;;;8.50;6.93;;;7.50;1.00;;;;;;5087922;28;20236;-63
2021/03/07 12:41:06;;;;;;;7.17;6.23;;;7.60;1.00;;;;;;5087782;28;20240;-62
2021/03/07 12:43:32;;;;;;;6.90;6.30;;;7.70;1.00;;;;;;5094847;28;20226;-64
2021/03/07 12:45:57;;;;;;;6.50;5.90;;;7.70;1.00;;;;;;5086393;28;20837;-60
2021/03/07 12:48:23;;;;;;;7.00;6.27;;;7.40;1.00;;;;;;5088603;28;20643;-60
2021/03/07 12:50:49;;;;;;;7.13;6.43;;;7.20;1.00;;;;;;5087701;28;20214;-62
2021/03/07 12:53:14;;;;;;;7.40;6.70;;;7.00;1.00;;;;;;5087624;28;20260;-62
2021/03/07 12:55:40;;;;;;;8.60;7.60;;;6.90;1.00;;;;;;5087436;28;20183;-62
2021/03/07 12:58:05;;;;;;;6.90;6.27;;;6.70;1.00;;;;;;5087468;28;20231;-61
2021/03/07 13:00:31;;;;;;;6.97;6.37;;;6.80;1.00;;;;;;5087325;28;20194;-61
2021/03/07 13:02:56;;;;;;;8.47;6.93;;;6.90;1.00;;;;;;5087212;28;20206;-62
2021/03/07 13:05:22;;;;;;;9.50;8.60;;;7.20;1.00;;;;;;5090963;28;20250;-64
2021/03/07 13:07:48;;;;;;;7.33;6.60;;;7.30;1.00;;;;;;5087462;28;20285;-63
2021/03/07 13:10:15;;;;;;;8.83;7.93;;;7.30;1.00;;;;;;5086002;28;20521;-62
2021/03/07 13:12:41;;;;;;;9.73;8.93;;;7.70;1.00;;;;;;5087006;28;20724;-63
2021/03/07 13:15:08;;;;;;;8.20;7.40;;;7.80;1.00;;;;;;5086795;28;20607;-63